Time;durP1;ratioP1;P1;durP2;ratioP2;P2;SDS_P1;SDS_P2;PMS_P1;PMS_P2;Temp;Humidity;BMP_temperature;BMP_pressure;BME280_temperature;BME280_humidity;BME280_pressure;Samples;Min_cycle;Max_cycle;Signal;HPM_P1;HPM_P2
2023/12/19 00:00:12;;;;;;;36.70;21.13;;;1.60;99.90;;;;;;4951559;28;20035;-93
2023/12/19 00:02:39;;;;;;;35.38;22.20;;;1.50;99.90;;;;;;4960598;28;20027;-92
2023/12/19 00:05:08;;;;;;;40.13;22.65;;;1.60;99.90;;;;;;4963983;28;20150;-91
2023/12/19 00:07:34;;;;;;;38.78;22.77;;;1.50;99.90;;;;;;4948454;29;20050;-92
2023/12/19 00:10:00;;;;;;;40.78;23.77;;;1.60;99.90;;;;;;4960156;28;20512;-92
2023/12/19 00:12:25;;;;;;;44.83;24.08;;;1.60;99.90;;;;;;4943597;29;20529;-93
2023/12/19 00:14:51;;;;;;;35.35;23.20;;;1.70;99.90;;;;;;4978408;28;20031;-92
2023/12/19 00:17:16;;;;;;;39.03;22.80;;;1.60;99.90;;;;;;4969174;28;20062;-92
2023/12/19 00:19:42;;;;;;;36.42;21.83;;;1.70;99.90;;;;;;4935270;29;20030;-94
2023/12/19 00:22:08;;;;;;;41.97;23.52;;;1.60;99.90;;;;;;4956023;28;20031;-93
2023/12/19 00:24:33;;;;;;;41.90;22.40;;;1.60;99.90;;;;;;4946888;29;20163;-93
2023/12/19 00:26:59;;;;;;;39.03;22.65;;;1.50;99.90;;;;;;4960512;28;20051;-92
2023/12/19 00:29:25;;;;;;;40.90;22.25;;;1.50;99.90;;;;;;4953123;28;20051;-92
2023/12/19 00:31:51;;;;;;;46.05;24.13;;;1.50;99.90;;;;;;4962902;28;20027;-93
2023/12/19 00:34:17;;;;;;;43.25;24.95;;;1.50;99.90;;;;;;4957999;28;20023;-93
2023/12/19 00:36:43;;;;;;;40.45;24.83;;;1.50;99.90;;;;;;4967481;28;20046;-92
2023/12/19 00:39:09;;;;;;;42.33;24.95;;;1.50;99.90;;;;;;4973304;28;20030;-92
2023/12/19 00:41:35;;;;;;;41.08;23.00;;;1.50;99.90;;;;;;4973577;28;20050;-90
2023/12/19 00:44:01;;;;;;;36.22;23.15;;;1.60;99.90;;;;;;4969454;28;20034;-90
2023/12/19 00:46:27;;;;;;;40.53;23.48;;;1.50;99.90;;;;;;4949378;28;20115;-92
2023/12/19 00:48:52;;;;;;;35.40;21.10;;;1.40;99.90;;;;;;4952504;28;20061;-94
2023/12/19 00:51:20;;;;;;;35.65;23.20;;;1.40;99.90;;;;;;4952444;28;20132;-92
2023/12/19 00:53:45;;;;;;;40.53;22.50;;;1.40;99.90;;;;;;4959860;29;20046;-92
2023/12/19 00:56:11;;;;;;;34.75;21.88;;;1.30;99.90;;;;;;4952869;28;20082;-93
2023/12/19 00:58:38;;;;;;;34.40;21.40;;;1.20;99.90;;;;;;4967038;28;20023;-93
2023/12/19 01:01:05;;;;;;;37.10;23.38;;;1.20;99.90;;;;;;4941090;29;20044;-91
2023/12/19 01:03:31;;;;;;;40.65;23.42;;;1.10;99.90;;;;;;4947189;28;20031;-92
2023/12/19 01:05:57;;;;;;;40.38;25.05;;;1.10;99.90;;;;;;4954526;28;20526;-92
2023/12/19 01:08:22;;;;;;;36.05;22.85;;;1.10;99.90;;;;;;4954013;28;20650;-91
2023/12/19 01:10:48;;;;;;;32.17;21.33;;;1.10;99.90;;;;;;4968501;28;20561;-92
2023/12/19 01:13:14;;;;;;;32.63;20.60;;;1.10;99.90;;;;;;4953671;29;20023;-92
2023/12/19 01:15:39;;;;;;;36.28;21.17;;;1.10;99.90;;;;;;4968829;28;20030;-92
2023/12/19 01:18:05;;;;;;;34.25;21.80;;;1.10;99.90;;;;;;4957324;28;20031;-93
2023/12/19 01:20:30;;;;;;;33.05;21.17;;;1.10;99.90;;;;;;4956253;28;20027;-92
2023/12/19 01:22:56;;;;;;;34.45;21.17;;;1.10;99.90;;;;;;4949220;29;20035;-92
2023/12/19 01:25:22;;;;;;;32.55;20.67;;;1.00;99.90;;;;;;4963265;28;20513;-93
2023/12/19 01:27:47;;;;;;;35.28;20.30;;;1.00;99.90;;;;;;4967448;28;20106;-91
2023/12/19 01:30:13;;;;;;;32.05;20.42;;;0.90;99.90;;;;;;4955962;28;20032;-91
2023/12/19 01:32:39;;;;;;;32.70;20.58;;;0.90;99.90;;;;;;4961751;28;20031;-91
2023/12/19 01:35:05;;;;;;;35.90;22.60;;;1.00;99.90;;;;;;4954031;29;20023;-89
2023/12/19 01:37:31;;;;;;;33.22;22.08;;;1.00;99.90;;;;;;4959430;28;20027;-91
2023/12/19 01:39:56;;;;;;;34.00;21.40;;;1.10;99.90;;;;;;4960400;28;20035;-93
2023/12/19 01:42:23;;;;;;;36.40;21.67;;;1.10;99.90;;;;;;4973993;28;20033;-92
2023/12/19 01:45:10;;;;;;;36.70;21.30;;;1.10;99.90;;;;;;4962575;28;20090;-94
2023/12/19 01:47:41;;;;;;;38.97;21.77;;;1.10;99.90;;;;;;4961136;28;20023;-91
2023/12/19 01:50:08;;;;;;;38.08;22.35;;;1.10;99.90;;;;;;4943250;28;20032;-93
2023/12/19 01:52:37;;;;;;;37.95;23.10;;;1.10;99.90;;;;;;4978991;28;20054;-91
2023/12/19 01:55:04;;;;;;;31.20;20.02;;;1.00;99.90;;;;;;4975452;28;20127;-91
2023/12/19 01:57:30;;;;;;;35.40;21.45;;;1.10;99.90;;;;;;4938405;29;20027;-93
2023/12/19 01:59:56;;;;;;;33.10;21.13;;;1.10;99.90;;;;;;4959127;28;20023;-92
2023/12/19 02:02:21;;;;;;;35.45;22.08;;;1.10;99.90;;;;;;4967094;28;20101;-92
2023/12/19 02:04:48;;;;;;;33.28;19.13;;;1.10;99.90;;;;;;4973398;28;20703;-92
2023/12/19 02:07:13;;;;;;;29.05;19.15;;;1.10;99.90;;;;;;4942171;29;20031;-90
2023/12/19 02:09:39;;;;;;;37.15;20.45;;;1.10;99.90;;;;;;4968360;28;20027;-91
2023/12/19 02:12:05;;;;;;;31.45;19.50;;;1.10;99.90;;;;;;4959261;28;20114;-92
2023/12/19 02:14:34;;;;;;;32.15;20.25;;;1.10;99.90;;;;;;4982899;28;20078;-93
2023/12/19 02:17:00;;;;;;;30.13;19.85;;;1.10;99.90;;;;;;4962172;28;20039;-92
2023/12/19 02:19:25;;;;;;;33.40;20.30;;;1.00;99.90;;;;;;4947129;28;20023;-92
2023/12/19 02:21:51;;;;;;;35.05;19.85;;;0.90;99.90;;;;;;4970482;28;20031;-92
2023/12/19 02:24:17;;;;;;;29.85;19.55;;;1.00;99.90;;;;;;4969368;28;20053;-93
2023/12/19 02:26:43;;;;;;;33.42;20.88;;;1.00;99.90;;;;;;4965659;28;20055;-92
2023/12/19 02:29:09;;;;;;;34.88;20.52;;;1.00;99.90;;;;;;4982008;28;20042;-93
2023/12/19 02:31:34;;;;;;;36.45;23.05;;;0.90;99.90;;;;;;4966115;28;20399;-92
2023/12/19 02:34:00;;;;;;;32.60;19.00;;;0.90;99.90;;;;;;4958050;28;20027;-92
2023/12/19 02:36:25;;;;;;;31.35;18.55;;;0.90;99.90;;;;;;4970777;28;20020;-93
2023/12/19 02:38:51;;;;;;;31.00;19.27;;;0.90;99.90;;;;;;4971908;28;20038;-92
2023/12/19 02:41:17;;;;;;;30.00;18.38;;;0.90;99.90;;;;;;4970555;28;20035;-92
2023/12/19 02:43:42;;;;;;;31.38;19.63;;;0.90;99.90;;;;;;4964467;28;20057;-91
2023/12/19 02:46:08;;;;;;;30.75;18.63;;;0.80;99.90;;;;;;4957146;28;20058;-91
2023/12/19 02:48:34;;;;;;;31.40;18.17;;;0.80;99.90;;;;;;4963734;28;20027;-92
2023/12/19 02:50:59;;;;;;;29.52;18.02;;;0.80;99.90;;;;;;4956946;28;20030;-92
2023/12/19 02:53:27;;;;;;;32.53;19.73;;;0.80;99.90;;;;;;4956243;28;20065;-91
2023/12/19 02:55:53;;;;;;;31.85;18.45;;;0.80;99.90;;;;;;4962445;28;20042;-90
2023/12/19 02:58:19;;;;;;;31.35;18.70;;;0.80;99.90;;;;;;4962940;28;20027;-93
2023/12/19 03:00:45;;;;;;;29.90;19.70;;;0.80;99.90;;;;;;4964615;28;20031;-92
2023/12/19 03:03:10;;;;;;;32.65;23.80;;;0.80;99.90;;;;;;4941112;29;20446;-93
2023/12/19 03:05:37;;;;;;;28.80;19.17;;;0.80;99.90;;;;;;4967345;28;20055;-92
2023/12/19 03:08:03;;;;;;;30.35;18.77;;;0.80;99.90;;;;;;4962111;28;20059;-92
2023/12/19 03:10:29;;;;;;;31.33;19.38;;;0.70;99.90;;;;;;4963399;28;20062;-91
2023/12/19 03:12:54;;;;;;;25.58;16.45;;;0.80;99.90;;;;;;4960996;29;20031;-92
2023/12/19 03:15:20;;;;;;;31.90;19.65;;;0.80;99.90;;;;;;4971111;28;20043;-93
2023/12/19 03:17:46;;;;;;;27.80;17.70;;;0.80;99.90;;;;;;4965836;28;20030;-92
2023/12/19 03:20:11;;;;;;;26.75;17.73;;;0.70;99.90;;;;;;4973655;28;20055;-93
2023/12/19 03:22:37;;;;;;;31.33;18.73;;;0.70;99.90;;;;;;4958934;29;20099;-92
2023/12/19 03:25:03;;;;;;;32.97;16.30;;;0.70;99.90;;;;;;4969216;28;20074;-92
2023/12/19 03:27:29;;;;;;;31.17;17.98;;;0.70;99.90;;;;;;4972897;28;20038;-91
2023/12/19 03:29:54;;;;;;;27.92;17.02;;;0.60;99.90;;;;;;4953109;29;20028;-90
2023/12/19 03:32:20;;;;;;;26.42;15.10;;;0.60;99.90;;;;;;4966704;28;20042;-90
2023/12/19 03:34:45;;;;;;;24.40;14.27;;;0.60;99.90;;;;;;4976974;28;20026;-92
2023/12/19 03:37:11;;;;;;;27.80;16.73;;;0.60;99.90;;;;;;4970964;28;20087;-92
2023/12/19 03:39:37;;;;;;;27.00;15.32;;;0.60;99.90;;;;;;4943768;29;20095;-92
2023/12/19 03:42:02;;;;;;;27.88;16.88;;;0.60;99.90;;;;;;4982217;28;20030;-92
2023/12/19 03:44:28;;;;;;;32.60;16.52;;;0.50;99.90;;;;;;4963132;28;20042;-92
2023/12/19 03:46:53;;;;;;;27.25;15.82;;;0.60;99.90;;;;;;4968261;28;20031;-91
2023/12/19 03:49:19;;;;;;;27.23;16.83;;;0.60;99.90;;;;;;4970239;28;20027;-90
2023/12/19 03:51:47;;;;;;;22.95;14.80;;;0.50;99.90;;;;;;4958320;29;20020;-92
2023/12/19 03:54:12;;;;;;;25.63;17.33;;;0.40;99.90;;;;;;4952814;28;20032;-92
2023/12/19 03:56:40;;;;;;;26.33;19.15;;;0.50;99.90;;;;;;4950011;28;20477;-93
2023/12/19 03:59:05;;;;;;;29.10;16.48;;;0.40;99.90;;;;;;4974332;28;20091;-91
2023/12/19 04:01:31;;;;;;;26.42;15.75;;;0.40;99.90;;;;;;4949012;28;20040;-91
2023/12/19 04:03:58;;;;;;;25.85;16.10;;;0.40;99.90;;;;;;4977536;28;20505;-92
2023/12/19 04:06:23;;;;;;;25.00;15.00;;;0.40;99.90;;;;;;4963228;28;20031;-92
2023/12/19 04:08:49;;;;;;;27.35;16.15;;;0.40;99.90;;;;;;4972596;28;20038;-91
2023/12/19 04:11:15;;;;;;;23.80;15.23;;;0.30;99.90;;;;;;4956718;28;20030;-92
2023/12/19 04:13:41;;;;;;;25.83;15.25;;;0.30;99.90;;;;;;4954168;28;20530;-92
2023/12/19 04:16:07;;;;;;;27.40;16.45;;;0.30;99.90;;;;;;4965452;28;20039;-92
2023/12/19 04:18:33;;;;;;;25.98;16.40;;;0.30;99.90;;;;;;4949857;29;20513;-92
2023/12/19 04:20:58;;;;;;;27.17;15.18;;;0.30;99.90;;;;;;4961090;28;20019;-93
2023/12/19 04:23:24;;;;;;;27.23;15.23;;;0.30;99.90;;;;;;4966556;28;20023;-92
2023/12/19 04:25:50;;;;;;;27.83;15.07;;;0.30;99.90;;;;;;4955926;28;20502;-93
2023/12/19 04:28:15;;;;;;;25.90;15.77;;;0.20;99.90;;;;;;4953539;29;20027;-91
2023/12/19 04:30:41;;;;;;;29.20;15.80;;;0.20;99.90;;;;;;4952331;28;20043;-91
2023/12/19 04:33:07;;;;;;;23.52;14.52;;;0.20;99.90;;;;;;4961154;28;20035;-92
2023/12/19 04:35:32;;;;;;;27.95;14.10;;;0.20;99.90;;;;;;4964208;28;20023;-91
2023/12/19 04:37:58;;;;;;;24.60;14.07;;;0.20;99.90;;;;;;4948925;28;20036;-92
2023/12/19 04:40:23;;;;;;;31.15;14.25;;;0.20;99.90;;;;;;4974083;28;20062;-92
2023/12/19 04:42:49;;;;;;;25.52;15.07;;;0.10;99.90;;;;;;4960184;29;20028;-92
2023/12/19 04:45:15;;;;;;;26.55;14.48;;;0.10;99.90;;;;;;4948543;28;20079;-91
2023/12/19 04:47:40;;;;;;;27.00;18.73;;;0.10;99.90;;;;;;4954208;28;20407;-92
2023/12/19 04:50:08;;;;;;;24.70;16.00;;;0.10;99.90;;;;;;4968673;28;20042;-92
2023/12/19 04:52:34;;;;;;;28.33;15.10;;;0.10;99.90;;;;;;4963376;28;20039;-90
2023/12/19 04:55:00;;;;;;;24.42;14.68;;;0.10;99.90;;;;;;4959006;28;20046;-91
2023/12/19 04:57:25;;;;;;;24.42;13.27;;;0.10;99.90;;;;;;4960070;29;20031;-92
2023/12/19 04:59:51;;;;;;;23.60;13.40;;;0.10;99.90;;;;;;4967459;28;20034;-91
2023/12/19 05:02:17;;;;;;;26.17;14.90;;;0.10;99.90;;;;;;4955615;28;20023;-92
2023/12/19 05:04:42;;;;;;;23.92;14.05;;;0.10;99.90;;;;;;4965236;28;20497;-91
2023/12/19 05:07:09;;;;;;;26.85;15.77;;;0.10;99.90;;;;;;4944121;28;20030;-91
2023/12/19 05:09:34;;;;;;;28.35;15.23;;;0.10;99.90;;;;;;4965654;28;20023;-91
2023/12/19 05:12:00;;;;;;;21.42;13.20;;;0.10;99.90;;;;;;4956719;28;20030;-92
2023/12/19 05:14:26;;;;;;;25.23;13.52;;;0.10;99.90;;;;;;4966006;28;20031;-92
2023/12/19 05:16:51;;;;;;;24.75;13.45;;;0.10;99.90;;;;;;4942990;28;20015;-91
2023/12/19 05:19:17;;;;;;;28.38;14.88;;;0.10;99.90;;;;;;4960257;28;20151;-93
2023/12/19 05:21:43;;;;;;;22.42;12.68;;;0.10;99.90;;;;;;4942148;28;20070;-93
2023/12/19 05:24:11;;;;;;;26.50;13.82;;;0.10;99.90;;;;;;4959875;28;20031;-91
2023/12/19 05:26:37;;;;;;;26.08;13.95;;;0.10;99.90;;;;;;4955493;28;20066;-90
2023/12/19 05:29:03;;;;;;;21.58;13.40;;;0.10;99.90;;;;;;4951382;28;20023;-88
2023/12/19 05:31:28;;;;;;;26.27;13.40;;;0.10;99.90;;;;;;4962394;28;20022;-91
2023/12/19 05:33:54;;;;;;;27.75;12.93;;;0.10;99.90;;;;;;4938336;29;20024;-90
2023/12/19 05:36:20;;;;;;;25.17;14.63;;;0.10;99.90;;;;;;4953102;28;20638;-91
2023/12/19 05:38:46;;;;;;;23.15;12.80;;;0.10;99.90;;;;;;4953303;28;20134;-91
2023/12/19 05:41:14;;;;;;;22.85;14.00;;;0.10;99.90;;;;;;4957993;28;20042;-92
2023/12/19 05:43:40;;;;;;;;;;;0.00;99.90;;;;;;4958832;28;20028;-91
2023/12/19 05:46:06;;;;;;;20.67;11.35;;;0.00;99.90;;;;;;4969094;28;20291;-92
2023/12/19 05:48:31;;;;;;;24.30;12.50;;;0.00;99.90;;;;;;4968078;28;20026;-91
2023/12/19 05:50:59;;;;;;;22.70;16.20;;;0.00;99.90;;;;;;4968065;28;21586;-90
2023/12/19 05:53:25;;;;;;;23.85;13.05;;;0.00;99.90;;;;;;4939991;29;20028;-91
2023/12/19 05:55:51;;;;;;;25.33;14.30;;;0.10;99.90;;;;;;4952422;28;20023;-91
2023/12/19 05:58:17;;;;;;;26.80;17.75;;;0.00;99.90;;;;;;4978411;28;20417;-92
2023/12/19 06:00:47;;;;;;;22.58;11.73;;;0.10;99.90;;;;;;4961581;28;20043;-90
2023/12/19 06:03:12;;;;;;;25.02;12.00;;;0.00;99.90;;;;;;4954947;28;20103;-91
2023/12/19 06:05:38;;;;;;;26.45;12.43;;;0.00;99.90;;;;;;4936419;29;20063;-91
2023/12/19 06:08:07;;;;;;;25.63;13.63;;;0.00;99.90;;;;;;4925547;29;20027;-91
2023/12/19 06:10:33;;;;;;;25.27;13.63;;;0.10;99.90;;;;;;4946627;28;20051;-90
2023/12/19 06:13:00;;;;;;;21.95;13.30;;;0.00;99.90;;;;;;4940030;29;20058;-92
2023/12/19 06:15:25;;;;;;;22.98;14.45;;;0.00;99.90;;;;;;4954944;28;20031;-92
2023/12/19 06:17:51;;;;;;;28.02;14.38;;;0.00;99.90;;;;;;4943762;28;20027;-91
2023/12/19 06:20:17;;;;;;;27.92;13.98;;;0.00;99.90;;;;;;4953551;28;20125;-92
2023/12/19 06:22:42;;;;;;;22.70;13.27;;;0.00;99.90;;;;;;4963693;28;20038;-92
2023/12/19 06:25:08;;;;;;;26.02;14.25;;;0.00;99.90;;;;;;4941866;29;20043;-91
2023/12/19 06:27:34;;;;;;;25.02;13.68;;;0.00;99.90;;;;;;4951412;28;20023;-91
2023/12/19 06:30:01;;;;;;;22.50;11.85;;;0.00;99.90;;;;;;4958371;28;20035;-90
2023/12/19 06:32:27;;;;;;;21.42;11.93;;;0.00;99.90;;;;;;4961483;28;20038;-87
2023/12/19 06:34:55;;;;;;;25.40;12.32;;;0.00;99.90;;;;;;4964932;28;20047;-85
2023/12/19 06:37:20;;;;;;;27.92;13.70;;;0.00;99.90;;;;;;4960211;28;20023;-85
2023/12/19 06:39:46;;;;;;;26.48;12.57;;;0.00;99.90;;;;;;4958142;28;20024;-84
2023/12/19 06:42:12;;;;;;;25.80;12.93;;;0.00;99.90;;;;;;4939166;29;20175;-82
2023/12/19 06:44:38;;;;;;;25.38;13.85;;;0.00;99.90;;;;;;4956521;28;20080;-84
2023/12/19 06:47:04;;;;;;;28.48;14.45;;;0.00;99.90;;;;;;4962078;28;20035;-84
2023/12/19 06:49:29;;;;;;;20.42;11.85;;;0.00;99.90;;;;;;4959200;28;20038;-85
2023/12/19 06:51:55;;;;;;;26.38;12.57;;;0.00;99.90;;;;;;4961684;28;20504;-83
2023/12/19 06:54:21;;;;;;;23.90;12.88;;;0.00;99.90;;;;;;4938508;29;20038;-85
2023/12/19 06:56:46;;;;;;;23.55;11.40;;;-0.10;99.90;;;;;;4960837;28;20669;-88
2023/12/19 06:59:14;;;;;;;26.52;13.75;;;-0.10;99.90;;;;;;4964590;28;20034;-86
2023/12/19 07:01:39;;;;;;;21.40;11.98;;;-0.10;99.90;;;;;;4964262;28;20034;-87
2023/12/19 07:04:05;;;;;;;24.33;13.05;;;-0.10;99.90;;;;;;4962468;28;20102;-92
2023/12/19 07:06:32;;;;;;;27.13;12.98;;;-0.20;99.90;;;;;;4956924;28;20458;-89
2023/12/19 07:08:57;;;;;;;27.42;14.70;;;-0.20;99.90;;;;;;4959965;28;20114;-90
2023/12/19 07:11:24;;;;;;;24.02;14.73;;;-0.20;99.90;;;;;;4955432;28;20414;-90
2023/12/19 07:13:52;;;;;;;23.70;13.05;;;-0.20;99.90;;;;;;4945302;28;20093;-87
2023/12/19 07:16:19;;;;;;;23.58;14.25;;;-0.20;99.90;;;;;;4953888;28;20066;-90
2023/12/19 07:18:46;;;;;;;24.90;12.90;;;-0.20;99.90;;;;;;4956544;28;20063;-90
2023/12/19 07:21:18;;;;;;;28.48;14.77;;;-0.30;99.90;;;;;;4953255;28;20019;-90
2023/12/19 07:23:44;;;;;;;27.63;16.42;;;-0.30;99.90;;;;;;4960178;28;20023;-90
2023/12/19 07:26:23;;;;;;;28.48;17.00;;;-0.30;99.90;;;;;;4962321;28;20020;-89
2023/12/19 07:28:50;;;;;;;28.08;14.30;;;-0.30;99.90;;;;;;4973961;28;20027;-90
2023/12/19 07:31:23;;;;;;;29.02;13.82;;;-0.30;99.90;;;;;;4934466;29;20026;-90
2023/12/19 07:33:56;;;;;;;25.42;14.73;;;-0.30;99.90;;;;;;4969816;28;20027;-90
2023/12/19 07:36:21;;;;;;;25.20;13.68;;;-0.30;99.90;;;;;;4961044;28;20032;-89
2023/12/19 07:38:48;;;;;;;26.45;14.07;;;-0.30;99.90;;;;;;4959147;28;20082;-89
2023/12/19 07:41:13;;;;;;;28.80;14.00;;;-0.30;99.90;;;;;;4965445;28;20532;-91
2023/12/19 07:43:39;;;;;;;30.58;15.43;;;-0.30;99.90;;;;;;4975072;28;20080;-92
2023/12/19 07:46:06;;;;;;;28.60;14.52;;;-0.30;99.90;;;;;;4972272;28;20042;-90
2023/12/19 07:48:32;;;;;;;27.23;13.98;;;-0.20;99.90;;;;;;4948949;29;20106;-91
2023/12/19 07:50:58;;;;;;;25.40;14.70;;;-0.30;99.90;;;;;;4972729;28;20023;-90
2023/12/19 07:53:27;;;;;;;25.80;14.65;;;-0.20;99.90;;;;;;4959664;28;20098;-91
2023/12/19 07:55:53;;;;;;;26.85;13.55;;;-0.20;99.90;;;;;;4967973;28;20019;-89
2023/12/19 07:58:19;;;;;;;28.90;13.98;;;-0.20;99.90;;;;;;4959812;29;20033;-91
2023/12/19 08:00:47;;;;;;;31.75;15.80;;;-0.20;99.90;;;;;;4962667;28;20031;-91
2023/12/19 08:03:14;;;;;;;27.90;16.05;;;-0.20;99.90;;;;;;4971298;28;20421;-90
2023/12/19 08:05:45;;;;;;;28.55;14.05;;;-0.10;99.90;;;;;;4954120;28;20031;-91
2023/12/19 08:08:11;;;;;;;26.02;14.35;;;-0.10;99.90;;;;;;4975624;28;20038;-91
2023/12/19 08:10:36;;;;;;;33.83;14.50;;;0.00;99.90;;;;;;4954676;29;20055;-90
2023/12/19 08:13:02;;;;;;;29.08;13.52;;;0.00;99.90;;;;;;4968874;28;20047;-92
2023/12/19 08:15:27;;;;;;;23.08;12.70;;;0.00;99.90;;;;;;4971054;28;20054;-90
2023/12/19 08:17:53;;;;;;;24.30;13.63;;;0.00;99.90;;;;;;4944430;28;20597;-91
2023/12/19 08:20:19;;;;;;;27.13;13.00;;;0.00;99.90;;;;;;4960668;28;20027;-90
2023/12/19 08:22:45;;;;;;;28.70;12.15;;;0.10;99.90;;;;;;4953155;28;20028;-91
2023/12/19 08:25:10;;;;;;;23.48;11.38;;;0.10;99.90;;;;;;4960836;28;20557;-89
2023/12/19 08:27:36;;;;;;;29.25;13.27;;;0.20;99.90;;;;;;4969485;28;20034;-91
2023/12/19 08:30:03;;;;;;;29.17;13.70;;;0.20;99.90;;;;;;4958856;28;20030;-90
2023/12/19 08:32:29;;;;;;;24.67;15.32;;;0.20;99.90;;;;;;4965689;28;20035;-91
2023/12/19 08:34:58;;;;;;;23.08;13.65;;;0.20;99.90;;;;;;4935232;28;20031;-91
2023/12/19 08:37:24;;;;;;;23.88;12.57;;;0.20;99.90;;;;;;4937358;28;20043;-92
2023/12/19 08:39:54;;;;;;;22.08;11.20;;;0.30;99.90;;;;;;4905301;28;20109;-92
2023/12/19 08:42:20;;;;;;;23.27;11.93;;;0.30;99.90;;;;;;4922584;28;20031;-90
2023/12/19 08:44:55;;;;;;;29.48;15.52;;;0.30;99.90;;;;;;4940835;28;20355;-88
2023/12/19 08:47:22;;;;;;;21.15;12.07;;;0.40;99.90;;;;;;4956586;28;20528;-92
2023/12/19 08:49:52;;;;;;;24.13;12.68;;;0.40;99.90;;;;;;4933454;28;20130;-91
2023/12/19 08:52:21;;;;;;;20.00;11.02;;;0.40;99.90;;;;;;4916272;28;20490;-90
2023/12/19 08:54:47;;;;;;;21.40;11.70;;;0.50;99.90;;;;;;4902690;28;20043;-89
2023/12/19 08:57:14;;;;;;;21.30;11.75;;;0.50;99.90;;;;;;4910730;28;20028;-90
2023/12/19 08:59:42;;;;;;;24.13;11.88;;;0.60;99.90;;;;;;4935172;28;20070;-88
2023/12/19 09:02:08;;;;;;;22.33;12.70;;;0.60;99.90;;;;;;4931981;28;20046;-92
2023/12/19 09:04:35;;;;;;;23.15;13.00;;;0.60;99.90;;;;;;4919921;28;20919;-91
2023/12/19 09:07:01;;;;;;;24.08;10.65;;;0.60;99.90;;;;;;4914483;28;20126;-91
2023/12/19 09:09:27;;;;;;;23.48;12.48;;;0.60;99.90;;;;;;4911043;28;20035;-91
2023/12/19 09:12:01;;;;;;;21.35;12.00;;;0.70;99.90;;;;;;4924278;28;20046;-89
2023/12/19 09:14:26;;;;;;;24.05;11.93;;;0.60;99.90;;;;;;4956471;28;20031;-90
2023/12/19 09:16:52;;;;;;;21.35;11.55;;;0.70;99.90;;;;;;4915535;28;20375;-87
2023/12/19 09:19:17;;;;;;;23.27;10.90;;;0.80;99.90;;;;;;4915101;28;20035;-91
2023/12/19 09:21:43;;;;;;;23.63;10.52;;;0.80;99.90;;;;;;4917434;28;20034;-90
2023/12/19 09:24:09;;;;;;;22.38;12.15;;;0.90;99.90;;;;;;4919137;28;20670;-89
2023/12/19 09:26:38;;;;;;;22.23;10.18;;;1.00;99.90;;;;;;4960053;28;20030;-89
2023/12/19 09:29:06;;;;;;;19.83;10.70;;;1.10;99.90;;;;;;4918006;28;20043;-89
2023/12/19 09:31:31;;;;;;;19.73;10.48;;;1.20;99.90;;;;;;4923651;28;20094;-90
2023/12/19 09:33:58;;;;;;;20.20;11.20;;;1.20;99.90;;;;;;4899014;28;20086;-90
2023/12/19 09:36:27;;;;;;;23.02;10.57;;;1.30;99.90;;;;;;4910092;28;20043;-89
2023/12/19 09:38:58;;;;;;;20.55;9.93;;;1.40;99.90;;;;;;4922106;28;20501;-89
2023/12/19 09:41:24;;;;;;;20.30;9.52;;;1.50;99.90;;;;;;4960963;28;20034;-91
2023/12/19 09:43:50;;;;;;;15.75;11.43;;;1.70;99.90;;;;;;4913319;28;20438;-91
2023/12/19 09:46:16;;;;;;;21.42;9.93;;;1.90;99.90;;;;;;4910731;28;20067;-92
2023/12/19 09:48:45;;;;;;;17.30;9.02;;;1.90;99.90;;;;;;4916197;28;20062;-88
2023/12/19 09:51:26;;;;;;;16.25;11.15;;;2.00;99.90;;;;;;4915361;28;21751;-91
2023/12/19 09:53:57;;;;;;;17.38;9.52;;;2.10;99.90;;;;;;4915161;28;20035;-87
2023/12/19 09:56:24;;;;;;;17.05;8.25;;;2.10;99.90;;;;;;4955902;28;20031;-93
2023/12/19 09:58:51;;;;;;;17.13;8.18;;;2.20;99.90;;;;;;4912378;28;20057;-91
2023/12/19 10:01:17;;;;;;;15.02;8.23;;;2.20;99.90;;;;;;4900547;28;20034;-90
2023/12/19 10:03:43;;;;;;;15.10;7.10;;;2.30;99.90;;;;;;4912699;28;20047;-91
2023/12/19 10:06:09;;;;;;;15.13;8.15;;;2.30;99.90;;;;;;4909150;28;20057;-89
2023/12/19 10:08:56;;;;;;;14.18;7.53;;;2.40;99.90;;;;;;4962535;28;20109;-89
2023/12/19 10:11:22;;;;;;;11.90;9.35;;;2.40;99.90;;;;;;4938468;28;20430;-90
2023/12/19 10:13:49;;;;;;;8.85;5.35;;;2.50;99.90;;;;;;4912252;28;20163;-92
2023/12/19 10:16:18;;;;;;;11.00;7.15;;;2.50;99.90;;;;;;4891557;28;20355;-89
2023/12/19 10:18:53;;;;;;;10.10;5.30;;;2.70;99.90;;;;;;4915651;28;20027;-91
2023/12/19 10:21:22;;;;;;;15.25;6.97;;;2.90;98.90;;;;;;4955472;28;20031;-91
2023/12/19 10:23:47;;;;;;;10.32;5.35;;;2.90;99.40;;;;;;4948234;28;20034;-91
2023/12/19 10:26:13;;;;;;;7.95;6.90;;;3.00;98.50;;;;;;4928011;28;21250;-88
2023/12/19 10:28:40;;;;;;;8.93;4.50;;;3.00;97.90;;;;;;4948907;28;20031;-91
2023/12/19 10:31:05;;;;;;;10.05;5.65;;;3.00;98.20;;;;;;4930101;28;20039;-91
2023/12/19 10:33:54;;;;;;;8.30;4.95;;;3.10;97.90;;;;;;4953994;28;20035;-90
2023/12/19 10:36:28;;;;;;;8.20;5.05;;;3.40;96.00;;;;;;4933697;28;20055;-91
2023/12/19 10:39:02;;;;;;;12.73;6.78;;;3.50;94.90;;;;;;4938703;28;20027;-89
2023/12/19 10:41:29;;;;;;;14.43;8.50;;;3.70;93.40;;;;;;4954266;28;20102;-90
2023/12/19 10:43:57;;;;;;;13.10;7.75;;;3.90;92.20;;;;;;4954041;28;20046;-91
2023/12/19 10:46:28;;;;;;;11.57;6.85;;;4.10;91.40;;;;;;4932301;28;20035;-92
2023/12/19 10:48:57;;;;;;;14.43;8.20;;;4.20;88.80;;;;;;4953000;28;20058;-90
2023/12/19 10:51:47;;;;;;;13.80;7.60;;;4.30;89.70;;;;;;4935452;28;20042;-90
2023/12/19 10:54:14;;;;;;;14.18;7.28;;;4.50;89.50;;;;;;4952627;28;20034;-90
2023/12/19 10:57:18;;;;;;;13.18;7.80;;;4.80;89.00;;;;;;4950406;28;20059;-90
2023/12/19 11:00:17;;;;;;;8.25;5.00;;;5.20;87.00;;;;;;4951354;28;20027;-90
2023/12/19 11:03:05;;;;;;;13.48;6.15;;;5.40;85.00;;;;;;4952459;28;20047;-89
2023/12/19 11:05:39;;;;;;;7.03;4.68;;;5.10;85.10;;;;;;4954421;28;20027;-90
2023/12/19 11:08:17;;;;;;;6.68;4.75;;;4.80;86.80;;;;;;4954671;28;20393;-89
2023/12/19 11:11:02;;;;;;;5.15;2.92;;;4.50;88.80;;;;;;4953511;28;20038;-89
2023/12/19 11:13:29;;;;;;;6.82;3.80;;;4.20;90.90;;;;;;4935232;28;20031;-90
2023/12/19 11:16:21;;;;;;;3.83;2.90;;;4.20;91.80;;;;;;4952268;28;20024;-90
2023/12/19 11:18:54;;;;;;;4.82;3.15;;;4.10;93.10;;;;;;4949570;28;20027;-93
2023/12/19 11:21:46;;;;;;;6.43;2.70;;;4.10;93.30;;;;;;4960223;29;20027;-92
2023/12/19 11:24:28;;;;;;;4.57;3.58;;;4.30;94.50;;;;;;4940914;29;20026;-91
2023/12/19 11:27:10;;;;;;;5.07;3.63;;;4.40;93.40;;;;;;4949429;28;20106;-90
2023/12/19 11:29:42;;;;;;;5.85;3.47;;;4.40;93.80;;;;;;4960004;28;20050;-91
2023/12/19 11:32:26;;;;;;;6.22;4.07;;;4.40;94.80;;;;;;4945468;28;20027;-91
2023/12/19 11:35:12;;;;;;;6.47;2.88;;;4.70;94.00;;;;;;4969591;28;20027;-93
2023/12/19 11:37:44;;;;;;;4.40;3.45;;;4.70;93.30;;;;;;4969735;28;20046;-91
2023/12/19 11:40:35;;;;;;;4.93;3.42;;;4.60;94.10;;;;;;4933292;28;20023;-90
2023/12/19 11:43:01;;;;;;;6.68;3.10;;;4.80;93.80;;;;;;4944049;28;20042;-91
2023/12/19 11:45:26;;;;;;;4.53;3.35;;;5.00;91.90;;;;;;4960702;28;20031;-92
2023/12/19 11:47:53;;;;;;;8.73;4.97;;;5.20;93.10;;;;;;4955548;28;20060;-92
2023/12/19 11:50:40;;;;;;;7.40;4.57;;;5.50;86.80;;;;;;4972749;28;20029;-92
2023/12/19 11:53:09;;;;;;;8.15;5.00;;;5.60;87.00;;;;;;4954166;28;20027;-92
2023/12/19 11:55:34;;;;;;;8.50;4.47;;;5.80;86.70;;;;;;4960660;28;20035;-94
2023/12/19 11:58:07;;;;;;;7.35;4.30;;;5.70;86.20;;;;;;4972554;28;20030;-92
2023/12/19 12:00:33;;;;;;;12.43;7.57;;;5.70;85.60;;;;;;4939306;29;20056;-93
2023/12/19 12:03:06;;;;;;;17.13;8.93;;;5.80;84.60;;;;;;4958615;28;20039;-93
2023/12/19 12:05:32;;;;;;;14.32;7.85;;;5.40;85.50;;;;;;4959341;28;20027;-93
2023/12/19 12:07:58;;;;;;;16.02;8.70;;;5.40;86.90;;;;;;4959492;28;20026;-93
2023/12/19 12:10:26;;;;;;;12.13;7.93;;;5.40;86.40;;;;;;4942278;29;20038;-95
2023/12/19 12:12:53;;;;;;;14.82;8.15;;;5.10;87.40;;;;;;4968235;28;20030;-92
2023/12/19 12:15:25;;;;;;;13.40;7.55;;;4.90;88.70;;;;;;4965309;28;20025;-91
2023/12/19 12:18:01;;;;;;;14.65;9.55;;;4.50;90.40;;;;;;4960772;28;20038;-92
2023/12/19 12:20:28;;;;;;;12.25;7.80;;;4.30;92.60;;;;;;4951508;28;20040;-94
2023/12/19 12:22:56;;;;;;;14.18;10.30;;;4.20;93.90;;;;;;4949172;28;20031;-92
2023/12/19 12:25:22;;;;;;;11.40;7.68;;;4.20;94.30;;;;;;4957179;28;20042;-93
2023/12/19 12:27:49;;;;;;;13.88;10.25;;;4.10;95.20;;;;;;4940375;29;20028;-93
2023/12/19 12:30:14;;;;;;;14.15;8.88;;;4.00;95.00;;;;;;4961600;28;20027;-94
2023/12/19 12:32:45;;;;;;;19.23;9.90;;;3.90;95.40;;;;;;4960723;28;20046;-93
2023/12/19 12:35:31;;;;;;;13.25;8.52;;;3.90;96.20;;;;;;4963322;28;20019;-93
2023/12/19 12:38:17;;;;;;;17.88;8.95;;;3.80;96.90;;;;;;4968931;28;20041;-93
2023/12/19 12:40:59;;;;;;;8.75;4.57;;;3.90;96.90;;;;;;4974055;28;20015;-94